This is the latest recevied weather packets stored in our database for station/object F4DVI. If no packets are shown the sender has not sent any weather packets the latest 10 day(s).
| Time | Temp. | Humidity | Pressure | Rain* | Wind** | Luminosity | Snow |
|---|---|---|---|---|---|---|---|
| 1777830217 | 20.56° C | 57% | 0 hPa | 0 mm | - | - | - |
| 1777829917 | 21.67° C | 55% | 0 hPa | 0 mm | - | - | - |
| 1777829617 | 22.22° C | 53% | 0 hPa | 0 mm | - | - | - |
| 1777829317 | 23.33° C | 52% | 0 hPa | 0 mm | - | - | - |
| 1777829017 | 23.33° C | 51% | 0 hPa | 0 mm | - | - | - |
| 1777828717 | 23.89° C | 50% | 0 hPa | 0 mm | - | - | - |
| 1777828417 | 23.33° C | 52% | 0 hPa | 0 mm | - | - | - |
| 1777828117 | 22.78° C | 52% | 0 hPa | 0 mm | - | - | - |
| 1777827817 | 23.33° C | 51% | 0 hPa | 0 mm | - | - | - |
| 1777827517 | 24.44° C | 49% | 0 hPa | 0 mm | - | - | - |
| 1777827217 | 25° C | 46% | 0 hPa | 0 mm | - | - | - |
| 1777826917 | 25.56° C | 46% | 0 hPa | 0 mm | - | - | - |
| 1777826617 | 25° C | 46% | 0 hPa | 0 mm | - | - | - |
| 1777826317 | 24.44° C | 49% | 0 hPa | 0 mm | - | - | - |
| 1777826017 | 25° C | 50% | 0 hPa | 0 mm | - | - | - |
| 1777825717 | 23.89° C | 50% | 0 hPa | 0 mm | - | - | - |
| 1777825417 | 23.33° C | 50% | 0 hPa | 0 mm | - | - | - |
| 1777825117 | 25° C | 48% | 0 hPa | 0 mm | - | - | - |
| 1777824817 | 25.56° C | 48% | 0 hPa | 0 mm | - | - | - |
| 1777824517 | 25.56° C | 49% | 0 hPa | 0 mm | - | - | - |
| 1777824217 | 25° C | 52% | 0 hPa | 0 mm | - | - | - |
| 1777823917 | 23.89° C | 51% | 0 hPa | 0 mm | - | - | - |
| 1777823617 | 25° C | 48% | 0 hPa | 0 mm | - | - | - |
| 1777823317 | 26.67° C | 45% | 0 hPa | 0 mm | - | - | - |
| 1777823017 | 26.67° C | 46% | 0 hPa | 0 mm | - | - | - |
* Rain latest hour (hover to see other rain measurements)
** Current wind speed in m/s (hover to see current wind gust speed)